Time;durP1;ratioP1;P1;durP2;ratioP2;P2;SDS_P1;SDS_P2;PMS_P1;PMS_P2;Temp;Humidity;BMP_temperature;BMP_pressure;BME280_temperature;BME280_humidity;BME280_pressure;Samples;Min_cycle;Max_cycle;Signal;HPM_P1;HPM_P2
2023/01/27 00:04:19;;;;;;;15.50;11.45;;;;;;;3.10;81.70;100583.00;10346901;28;20041;-50
2023/01/27 00:09:20;;;;;;;14.85;11.25;;;;;;;3.04;81.97;100580.63;10346176;28;20049;-51
2023/01/27 00:14:22;;;;;;;12.90;9.60;;;;;;;3.03;82.20;100571.03;10343922;28;20053;-53
2023/01/27 00:19:25;;;;;;;14.93;11.32;;;;;;;2.99;82.24;100559.81;10347179;28;20388;-49
2023/01/27 00:24:36;;;;;;;16.45;10.23;;;;;;;2.92;82.40;100552.25;10349851;28;20131;-50
2023/01/27 00:29:39;;;;;;;14.00;10.13;;;;;;;3.12;82.11;100554.00;10354597;28;20120;-51
2023/01/27 00:34:40;;;;;;;13.68;10.38;;;;;;;3.00;82.83;100560.63;10355473;28;20560;-50
2023/01/27 00:39:42;;;;;;;13.20;10.13;;;;;;;3.02;82.71;100553.56;10357976;28;20299;-51
2023/01/27 00:45:47;;;;;;;13.30;9.82;;;;;;;3.03;82.79;100552.63;10347620;28;20642;-51
2023/01/27 00:50:08;;;;;;;10.88;8.98;;;;;;;2.91;83.60;100558.41;10351044;28;20060;-50
2023/01/27 00:55:10;;;;;;;14.98;9.57;;;;;;;2.89;83.52;100555.03;10347040;28;20046;-51
2023/01/27 01:00:12;;;;;;;11.70;8.85;;;;;;;2.74;84.24;100541.59;10350619;28;20562;-50
2023/01/27 01:05:14;;;;;;;9.55;7.18;;;;;;;2.94;83.21;100553.91;10351091;28;20052;-51
2023/01/27 01:10:16;;;;;;;10.32;7.75;;;;;;;2.99;82.46;100553.69;10353222;28;20049;-50
2023/01/27 01:15:17;;;;;;;9.48;7.50;;;;;;;3.09;82.44;100567.28;10348073;28;20783;-50
2023/01/27 01:20:19;;;;;;;11.07;6.63;;;;;;;3.12;82.43;100591.69;10348603;28;20107;-51
2023/01/27 01:25:20;;;;;;;9.45;7.50;;;;;;;3.10;82.43;100587.41;10345346;28;20436;-50
2023/01/27 01:30:25;;;;;;;8.38;6.65;;;;;;;3.14;82.37;100587.22;10348788;28;20049;-50
2023/01/27 01:35:26;;;;;;;8.20;6.75;;;;;;;3.19;82.18;100593.09;10349102;28;20483;-50
2023/01/27 01:40:27;;;;;;;7.70;6.63;;;;;;;3.17;82.25;100589.69;10348849;28;20110;-51
2023/01/27 01:45:35;;;;;;;8.80;6.70;;;;;;;3.21;82.08;100587.78;10349245;28;21014;-49
2023/01/27 01:50:39;;;;;;;8.40;6.85;;;;;;;3.17;82.12;100581.81;10350342;28;20049;-50
2023/01/27 01:55:41;;;;;;;8.15;6.95;;;;;;;3.21;82.24;100576.41;10347135;28;20185;-50
2023/01/27 02:00:44;;;;;;;8.50;6.43;;;;;;;3.21;82.24;100573.78;10344764;28;20052;-50
2023/01/27 02:05:46;;;;;;;8.57;6.82;;;;;;;3.21;82.53;100572.00;10350997;28;20757;-49
2023/01/27 02:10:48;;;;;;;7.53;6.28;;;;;;;3.26;82.21;100569.16;10352070;28;20586;-51
2023/01/27 02:15:52;;;;;;;8.65;6.80;;;;;;;3.27;82.10;100573.50;10345331;28;20112;-50
2023/01/27 02:20:54;;;;;;;8.80;7.03;;;;;;;3.27;82.17;100576.13;10344839;28;20046;-51
2023/01/27 02:26:37;;;;;;;10.88;6.97;;;;;;;3.28;82.05;100573.44;10341342;28;20060;-50
2023/01/27 02:31:39;;;;;;;9.52;7.10;;;;;;;3.36;81.71;100565.19;10137157;29;20324;-49
2023/01/27 02:36:47;;;;;;;7.93;6.57;;;;;;;3.31;82.20;100573.28;10301515;28;20486;-50
2023/01/27 02:41:53;;;;;;;8.52;7.63;;;;;;;3.31;82.28;100578.53;10349545;28;20053;-49
2023/01/27 02:46:55;;;;;;;9.77;7.63;;;;;;;3.32;82.56;100579.44;10346857;28;20573;-52
2023/01/27 02:51:56;;;;;;;7.93;6.82;;;;;;;3.30;82.27;100570.72;10339989;28;20191;-50
2023/01/27 02:56:58;;;;;;;7.85;6.25;;;;;;;3.12;81.84;100536.44;10338224;28;20236;-49
2023/01/27 03:02:00;;;;;;;8.77;6.85;;;;;;;3.40;81.96;100587.81;10351392;28;20133;-50
2023/01/27 03:07:01;;;;;;;11.02;7.38;;;;;;;3.36;82.06;100583.59;10339282;28;20054;-50
2023/01/27 03:12:21;;;;;;;8.45;7.43;;;;;;;3.37;81.92;100580.06;10342382;28;20451;-50
2023/01/27 03:22:43;;;;;;;9.57;7.97;;;;;;;3.26;82.78;100590.19;10339881;28;20563;-50
2023/01/27 03:27:44;;;;;;;9.30;7.93;;;;;;;3.21;83.16;100586.94;10349544;28;20057;-50
2023/01/27 03:32:53;;;;;;;7.75;6.95;;;;;;;3.25;83.16;100593.78;10341416;28;20062;-55
2023/01/27 03:48:35;;;;;;;8.07;7.18;;;;;;;3.34;82.46;100593.34;10345364;28;20049;-50
2023/01/27 03:53:37;;;;;;;10.25;8.00;;;;;;;3.38;82.52;100594.94;10344894;28;20052;-49
2023/01/27 03:58:40;;;;;;;9.35;7.72;;;;;;;3.38;82.47;100601.94;10342626;28;20079;-49
2023/01/27 04:09:04;;;;;;;8.90;7.15;;;;;;;3.29;82.42;100595.34;10350302;28;20129;-49
2023/01/27 04:14:06;;;;;;;7.97;6.97;;;;;;;3.38;82.11;100601.94;10347958;28;20053;-50
2023/01/27 04:19:09;;;;;;;8.93;7.30;;;;;;;3.40;82.09;100597.50;10348312;28;20061;-50
2023/01/27 04:24:21;;;;;;;9.30;7.88;;;;;;;3.46;81.94;100602.47;10348934;28;20524;-51
2023/01/27 04:29:26;;;;;;;9.13;7.70;;;;;;;3.45;81.84;100604.25;10348420;28;20227;-50
2023/01/27 04:34:28;;;;;;;7.93;7.13;;;;;;;3.48;81.78;100596.22;10349270;28;20049;-49
2023/01/27 04:39:29;;;;;;;8.63;7.15;;;;;;;3.50;81.49;100599.63;10347090;28;20070;-50
2023/01/27 04:44:30;;;;;;;6.97;6.28;;;;;;;3.47;81.44;100594.50;10349122;28;20054;-50
2023/01/27 04:49:32;;;;;;;8.07;6.93;;;;;;;3.43;81.64;100608.72;10346753;28;20053;-54
2023/01/27 04:54:33;;;;;;;8.07;7.20;;;;;;;3.45;81.46;100614.78;10343138;28;20057;-51
2023/01/27 04:59:35;;;;;;;6.95;6.25;;;;;;;3.47;81.42;100615.56;10350264;28;20061;-49
2023/01/27 05:04:36;;;;;;;7.90;6.75;;;;;;;3.47;81.27;100615.56;10346787;28;20055;-48
2023/01/27 05:09:37;;;;;;;7.82;6.65;;;;;;;3.50;81.13;100623.31;10346649;28;20049;-50
2023/01/27 05:14:39;;;;;;;7.15;6.45;;;;;;;3.43;80.83;100613.16;10341748;28;20151;-50
2023/01/27 05:19:40;;;;;;;7.88;6.32;;;;;;;3.50;81.09;100623.31;10349684;28;20052;-50
2023/01/27 05:24:43;;;;;;;7.05;6.13;;;;;;;3.58;80.67;100627.38;10347292;28;20104;-49
2023/01/27 05:29:45;;;;;;;8.43;6.28;;;;;;;3.53;80.63;100631.06;10345029;28;20809;-49
2023/01/27 05:34:46;;;;;;;6.85;6.15;;;;;;;3.55;80.36;100628.38;10352639;28;20124;-49
2023/01/27 05:39:48;;;;;;;6.18;5.57;;;;;;;3.62;80.44;100634.19;10347935;28;20627;-50
2023/01/27 05:44:49;;;;;;;6.30;5.70;;;;;;;3.63;80.42;100633.28;10347247;28;20045;-50
2023/01/27 05:49:51;;;;;;;6.78;6.07;;;;;;;3.58;79.73;100632.66;10348379;28;20050;-50
2023/01/27 05:54:52;;;;;;;7.53;6.72;;;;;;;3.62;80.17;100636.84;10345862;28;20436;-51
2023/01/27 05:59:53;;;;;;;6.18;5.57;;;;;;;3.59;80.09;100635.22;10342652;28;20053;-50
2023/01/27 06:04:55;;;;;;;6.05;5.47;;;;;;;3.66;79.96;100646.31;10343319;28;20058;-49
2023/01/27 06:09:56;;;;;;;6.13;5.55;;;;;;;3.62;79.54;100648.25;10342601;28;20555;-50
2023/01/27 06:14:59;;;;;;;6.03;5.43;;;;;;;3.61;79.86;100664.94;10348138;28;20060;-51
2023/01/27 06:20:00;;;;;;;7.00;5.72;;;;;;;3.56;79.70;100656.41;10348733;28;20200;-50
2023/01/27 06:25:02;;;;;;;6.82;5.65;;;;;;;3.63;79.56;100656.97;10348594;28;20049;-49
2023/01/27 06:30:03;;;;;;;6.60;5.93;;;;;;;3.66;79.68;100662.09;10349864;28;20057;-50
2023/01/27 06:35:05;;;;;;;6.70;5.82;;;;;;;3.60;79.47;100659.75;10345773;28;20057;-50
2023/01/27 06:40:08;;;;;;;6.90;6.20;;;;;;;3.65;79.46;100669.16;10342419;28;20775;-50
2023/01/27 06:45:11;;;;;;;7.07;6.10;;;;;;;3.63;80.13;100691.22;10348953;28;20053;-51
2023/01/27 06:50:12;;;;;;;7.25;6.55;;;;;;;3.75;81.44;100677.47;10341844;28;20077;-50
2023/01/27 06:55:15;;;;;;;7.78;6.65;;;;;;;3.77;80.20;100680.91;10344959;28;20133;-51
2023/01/27 07:00:17;;;;;;;7.93;7.00;;;;;;;3.77;80.05;100680.03;10348315;28;20045;-50
2023/01/27 07:05:19;;;;;;;8.57;7.68;;;;;;;3.74;80.43;100688.09;10348042;28;20053;-49
2023/01/27 07:10:20;;;;;;;9.77;8.27;;;;;;;3.75;80.44;100680.13;10341057;28;20053;-50
2023/01/27 07:15:21;;;;;;;9.82;8.73;;;;;;;3.70;80.59;100687.38;10339883;28;20060;-50
2023/01/27 07:20:26;;;;;;;8.45;7.63;;;;;;;3.82;80.76;100705.25;10328271;28;20487;-50
2023/01/27 07:25:31;;;;;;;14.98;13.32;;;;;;;3.91;80.54;100695.25;10333871;28;20125;-51
2023/01/27 07:30:33;;;;;;;11.45;10.30;;;;;;;3.82;80.43;100686.81;10332813;28;20787;-51
2023/01/27 07:35:36;;;;;;;8.85;7.95;;;;;;;3.88;80.59;100699.72;10343120;28;20081;-50
2023/01/27 07:40:37;;;;;;;18.55;13.93;;;;;;;3.91;80.33;100718.94;10338716;28;20129;-51
2023/01/27 07:45:39;;;;;;;8.70;7.90;;;;;;;3.93;80.28;100717.09;10339655;28;20528;-49
2023/01/27 07:50:41;;;;;;;9.23;8.07;;;;;;;3.86;80.55;100716.53;10341901;28;20549;-51
2023/01/27 07:55:42;;;;;;;9.00;8.10;;;;;;;3.96;80.48;100712.53;10341595;28;20141;-51
2023/01/27 08:00:43;;;;;;;8.77;7.88;;;;;;;4.01;79.93;100720.25;10338551;28;20053;-53
2023/01/27 08:05:45;;;;;;;8.93;7.40;;;;;;;4.07;79.81;100730.50;10345516;28;20770;-49
2023/01/27 08:10:48;;;;;;;7.00;6.40;;;;;;;4.13;79.49;100724.94;10351670;28;20056;-50
2023/01/27 08:15:54;;;;;;;8.43;7.63;;;;;;;4.14;79.25;100728.44;10346916;28;20449;-51
2023/01/27 08:20:59;;;;;;;7.65;6.90;;;;;;;4.10;79.49;100722.47;10357272;28;20172;-52
2023/01/27 08:26:03;;;;;;;7.87;7.17;;;;;;;4.25;78.83;100729.63;10353080;28;20053;-51
2023/01/27 08:31:10;;;;;;;7.07;6.47;;;;;;;4.31;78.57;100738.19;10357698;28;20054;-50
2023/01/27 08:36:15;;;;;;;7.65;6.95;;;;;;;4.37;78.45;100744.03;10355136;28;20053;-50
2023/01/27 08:41:23;;;;;;;6.72;6.13;;;;;;;4.45;77.76;100751.56;10354117;28;20231;-50
2023/01/27 08:46:25;;;;;;;7.05;6.35;;;;;;;4.47;77.85;100756.78;10349201;28;20653;-58
2023/01/27 08:51:27;;;;;;;7.55;6.85;;;;;;;4.40;77.89;100766.75;10353756;28;20120;-52
2023/01/27 08:56:29;;;;;;;7.30;6.60;;;;;;;4.40;78.85;100772.03;10350183;28;20491;-51
2023/01/27 09:01:31;;;;;;;6.53;5.82;;;;;;;4.39;78.46;100778.22;10349022;28;20054;-50
2023/01/27 09:06:32;;;;;;;6.78;6.18;;;;;;;4.36;78.44;100783.63;10349442;28;20064;-51
2023/01/27 09:11:35;;;;;;;6.95;6.32;;;;;;;4.42;77.95;100799.16;10348830;28;20536;-51
2023/01/27 09:16:37;;;;;;;7.18;6.53;;;;;;;4.45;78.28;100796.41;10346996;28;20087;-51
2023/01/27 09:21:38;;;;;;;7.05;6.45;;;;;;;4.51;77.90;100801.38;10349785;28;20045;-51
2023/01/27 09:26:40;;;;;;;7.55;6.85;;;;;;;4.49;77.81;100803.25;10350843;28;20125;-51
2023/01/27 09:31:41;;;;;;;9.98;8.90;;;;;;;4.53;78.24;100806.56;10352324;28;20584;-52
2023/01/27 09:36:49;;;;;;;6.60;6.00;;;;;;;4.54;78.03;100798.59;10350386;28;20045;-50
2023/01/27 09:42:00;;;;;;;6.47;5.88;;;;;;;4.54;77.90;100797.75;10356981;28;20100;-52
2023/01/27 09:47:26;;;;;;;7.35;6.65;;;;;;;4.62;77.71;100803.50;10350531;28;20050;-52
2023/01/27 09:52:42;;;;;;;6.60;6.00;;;;;;;4.55;77.96;100808.22;10347960;28;21268;-51
2023/01/27 09:58:08;;;;;;;6.82;6.22;;;;;;;4.53;78.00;100796.03;10356118;28;20057;-53
2023/01/27 10:03:47;;;;;;;6.95;6.25;;;;;;;4.55;77.57;100799.47;10350264;28;20049;-50
2023/01/27 10:09:17;;;;;;;6.75;6.10;;;;;;;4.55;77.63;100795.03;10348626;28;20507;-52
2023/01/27 10:14:39;;;;;;;7.05;6.45;;;;;;;4.39;77.85;100784.34;10346174;28;20053;-56
2023/01/27 10:19:43;;;;;;;6.22;5.63;;;;;;;4.62;77.91;100790.31;10351191;28;20053;-50
2023/01/27 10:24:58;;;;;;;7.03;6.43;;;;;;;4.69;77.45;100790.91;10351680;28;20057;-50
2023/01/27 10:30:12;;;;;;;6.03;5.32;;;;;;;4.75;77.03;100785.34;10348073;28;20083;-51
2023/01/27 10:35:39;;;;;;;5.10;4.65;;;;;;;4.74;76.60;100794.16;10346673;28;20056;-52
2023/01/27 10:40:55;;;;;;;6.30;5.70;;;;;;;4.83;77.12;100782.31;10337197;28;20527;-51
2023/01/27 10:46:00;;;;;;;5.90;5.40;;;;;;;4.83;76.46;100788.44;10347407;28;20045;-50
2023/01/27 10:51:10;;;;;;;5.70;4.60;;;;;;;4.72;76.63;100781.06;10347467;28;20423;-50
2023/01/27 10:56:35;;;;;;;5.00;4.50;;;;;;;4.74;76.93;100794.16;10343021;28;20053;-51
2023/01/27 11:01:56;;;;;;;;;;;;;;;4.53;76.36;100761.75;10344415;28;20079;-52
2023/01/27 11:06:58;;;;;;;4.70;4.00;;;;;;;4.84;75.68;100779.63;10343129;28;19947;-50
2023/01/27 11:12:04;;;;;;;4.53;4.10;;;;;;;5.02;75.22;100784.94;10347911;28;20567;-49
2023/01/27 11:17:17;;;;;;;5.07;3.75;;;;;;;5.22;74.13;100794.50;10340190;28;20165;-50
2023/01/27 11:22:23;;;;;;;4.68;4.28;;;;;;;5.30;74.14;100787.06;10346300;28;20050;-48
2023/01/27 11:27:49;;;;;;;4.13;3.72;;;;;;;5.32;74.22;100774.63;10346488;28;20753;-49
2023/01/27 11:33:10;;;;;;;5.63;3.67;;;;;;;5.30;73.04;100779.16;10332765;28;20099;-48
2023/01/27 11:38:15;;;;;;;3.22;2.92;;;;;;;5.34;73.36;100787.75;10351712;28;20068;-49
2023/01/27 11:43:22;;;;;;;14.55;7.78;;;;;;;5.35;72.42;100778.91;10349490;28;20691;-49
2023/01/27 11:48:32;;;;;;;8.70;6.05;;;;;;;5.32;72.52;100778.13;10347054;28;20572;-48
2023/01/27 11:53:38;;;;;;;4.13;3.65;;;;;;;5.31;72.65;100763.25;10346830;28;20059;-50
2023/01/27 11:58:48;;;;;;;3.28;2.97;;;;;;;5.45;72.64;100772.22;10341652;28;20140;-49
2023/01/27 12:04:20;;;;;;;4.25;3.17;;;;;;;5.39;72.42;100765.47;10345025;28;20096;-49
2023/01/27 12:09:29;;;;;;;2.75;2.47;;;;;;;5.42;72.36;100761.81;10344684;28;20049;-49
2023/01/27 12:14:30;;;;;;;2.30;2.10;;;;;;;5.40;71.82;100753.13;10340146;28;20060;-49
2023/01/27 12:19:39;;;;;;;3.00;2.70;;;;;;;5.41;72.41;100758.31;10340990;28;20069;-49
2023/01/27 12:24:48;;;;;;;4.25;2.55;;;;;;;5.57;71.43;100757.53;10342870;28;20053;-50
2023/01/27 12:29:55;;;;;;;2.15;1.98;;;;;;;5.59;71.33;100735.41;10345873;28;21264;-50
2023/01/27 12:34:57;;;;;;;2.55;2.03;;;;;;;5.66;71.64;100742.09;10350285;28;20046;-54
2023/01/27 12:40:02;;;;;;;2.22;2.03;;;;;;;5.57;71.96;100736.41;10349320;28;20664;-55
2023/01/27 12:45:19;;;;;;;1.70;1.45;;;;;;;5.52;71.51;100733.16;10346624;28;20049;-51
2023/01/27 12:50:26;;;;;;;1.17;1.02;;;;;;;5.55;71.88;100744.41;10347637;28;20147;-51
2023/01/27 12:55:34;;;;;;;2.45;1.30;;;;;;;5.32;71.63;100696.28;10348147;28;20506;-50
2023/01/27 13:00:36;;;;;;;1.30;1.10;;;;;;;5.55;72.01;100739.13;10345729;28;20053;-50
2023/01/27 13:05:41;;;;;;;2.40;1.20;;;;;;;5.62;71.63;100735.25;10345096;28;20053;-51
2023/01/27 13:10:52;;;;;;;1.05;0.93;;;;;;;5.54;71.17;100726.88;10340897;28;20148;-49
2023/01/27 13:16:17;;;;;;;1.88;1.05;;;;;;;5.48;70.53;100732.47;10347312;28;20471;-50
2023/01/27 13:21:23;;;;;;;0.82;0.65;;;;;;;5.60;68.01;100738.88;10342224;28;20044;-50
2023/01/27 13:26:29;;;;;;;0.70;0.43;;;;;;;5.69;67.84;100750.75;10351451;28;20132;-50
2023/01/27 13:32:08;;;;;;;0.50;0.50;;;;;;;5.51;69.49;100758.72;10343446;28;20053;-49
2023/01/27 13:37:19;;;;;;;1.15;0.63;;;;;;;5.59;69.04;100756.53;10339403;28;20058;-49
2023/01/27 13:42:45;;;;;;;2.13;0.50;;;;;;;5.72;68.68;100756.75;10336404;28;20057;-50
2023/01/27 13:48:08;;;;;;;1.40;0.68;;;;;;;5.76;69.06;100762.72;10339651;28;20498;-50
2023/01/27 13:53:13;;;;;;;2.88;0.80;;;;;;;5.58;69.14;100765.38;10342055;28;20054;-50
2023/01/27 13:58:31;;;;;;;0.68;0.52;;;;;;;5.62;69.75;100766.94;10346280;28;20718;-50
2023/01/27 14:03:46;;;;;;;0.93;0.60;;;;;;;5.57;68.76;100761.06;10344603;28;20170;-50
2023/01/27 14:08:54;;;;;;;0.85;0.55;;;;;;;5.57;68.74;100768.09;10345832;28;20046;-51
2023/01/27 14:14:13;;;;;;;1.23;0.70;;;;;;;5.23;69.25;100762.75;10343355;28;20077;-50
2023/01/27 14:19:32;;;;;;;1.17;0.55;;;;;;;5.24;69.57;100777.66;10332509;28;20424;-50
2023/01/27 14:25:04;;;;;;;1.80;0.68;;;;;;;5.38;69.16;100784.88;10322161;28;20045;-50
2023/01/27 14:30:21;;;;;;;0.60;0.30;;;;;;;5.37;68.24;100784.97;10331480;28;20710;-50
2023/01/27 14:35:37;;;;;;;0.30;0.20;;;;;;;5.28;67.71;100784.50;10332457;28;20045;-50
2023/01/27 14:41:16;;;;;;;0.75;0.30;;;;;;;5.39;67.84;100791.00;10353672;28;20041;-50
2023/01/27 14:46:21;;;;;;;0.63;0.50;;;;;;;5.54;67.75;100790.25;10344021;28;20064;-50
2023/01/27 14:51:34;;;;;;;0.80;0.40;;;;;;;5.73;67.43;100794.59;10343961;28;20060;-50
2023/01/27 14:57:05;;;;;;;1.70;0.50;;;;;;;5.76;67.59;100794.44;10345277;28;20052;-50
2023/01/27 15:02:12;;;;;;;1.20;0.40;;;;;;;5.68;67.89;100808.03;10342411;28;20079;-49
2023/01/27 15:07:42;;;;;;;0.60;0.43;;;;;;;5.61;67.61;100807.47;10339280;28;20843;-49
2023/01/27 15:13:18;;;;;;;0.95;0.40;;;;;;;5.61;67.57;100818.03;10343470;28;20052;-49
2023/01/27 15:18:43;;;;;;;0.70;0.50;;;;;;;5.64;67.51;100817.03;10333147;28;20056;-50
2023/01/27 15:23:57;;;;;;;1.25;0.60;;;;;;;5.68;67.94;100828.31;10322730;28;20049;-49
2023/01/27 15:28:59;;;;;;;1.15;0.57;;;;;;;5.71;68.04;100825.53;10338409;28;20061;-49
2023/01/27 15:34:21;;;;;;;0.68;0.40;;;;;;;5.69;68.24;100825.59;10343612;28;20049;-49
2023/01/27 15:39:22;;;;;;;1.13;0.65;;;;;;;5.65;68.09;100819.59;10344412;28;20180;-50
2023/01/27 15:45:01;;;;;;;0.90;0.60;;;;;;;5.68;68.43;100823.03;10340502;28;20041;-48
2023/01/27 15:50:05;;;;;;;1.25;0.77;;;;;;;5.64;68.01;100830.25;10340584;28;20063;-48
2023/01/27 15:55:22;;;;;;;2.13;0.60;;;;;;;5.60;68.17;100826.03;10344152;28;20057;-50
2023/01/27 16:00:32;;;;;;;0.73;0.47;;;;;;;5.57;68.38;100832.34;10340432;28;20060;-49
2023/01/27 16:05:44;;;;;;;1.00;0.68;;;;;;;5.55;68.46;100834.19;10349263;28;20716;-48
2023/01/27 16:10:45;;;;;;;1.30;0.90;;;;;;;5.55;68.42;100841.28;10350281;28;20045;-54
2023/01/27 16:15:47;;;;;;;1.83;1.10;;;;;;;5.27;68.83;100809.19;10354922;28;20076;-49
2023/01/27 16:21:05;;;;;;;7.53;1.27;;;;;;;5.54;68.69;100842.19;10345015;28;20584;-49
2023/01/27 16:26:19;;;;;;;1.63;1.15;;;;;;;5.48;68.46;100846.03;10347811;28;20052;-50
2023/01/27 16:31:29;;;;;;;2.30;2.10;;;;;;;5.55;68.44;100839.47;10346509;28;20065;-50
2023/01/27 16:36:34;;;;;;;2.92;1.50;;;;;;;5.58;68.65;100849.03;10351885;28;20131;-50
2023/01/27 16:41:38;;;;;;;4.85;1.70;;;;;;;5.57;69.44;100857.88;10354959;28;21837;-50
2023/01/27 16:46:53;;;;;;;2.45;1.60;;;;;;;5.52;69.30;100858.13;10348411;28;20708;-51
2023/01/27 16:52:00;;;;;;;1.50;1.40;;;;;;;5.52;69.48;100871.31;10350458;28;20723;-50
2023/01/27 16:57:03;;;;;;;4.13;1.27;;;;;;;5.50;69.72;100873.19;10349386;28;20080;-51
2023/01/27 17:02:18;;;;;;;2.10;1.88;;;;;;;5.52;70.30;100884.53;10349272;28;20136;-50
2023/01/27 17:07:20;;;;;;;2.95;2.10;;;;;;;5.54;70.60;100880.03;10348873;28;20056;-50
2023/01/27 17:12:41;;;;;;;2.13;1.92;;;;;;;5.39;70.91;100868.44;10349123;28;20085;-49
2023/01/27 17:17:43;;;;;;;2.28;2.05;;;;;;;5.53;71.03;100885.41;10346914;28;20212;-50
2023/01/27 17:22:47;;;;;;;2.83;2.03;;;;;;;5.54;71.08;100880.03;10345367;28;20053;-50
2023/01/27 17:27:49;;;;;;;1.67;1.30;;;;;;;5.52;71.76;100887.16;10349888;28;20045;-50
2023/01/27 17:32:55;;;;;;;2.60;1.80;;;;;;;5.46;72.22;100887.47;10346398;28;20292;-51
2023/01/27 17:38:50;;;;;;;2.88;1.88;;;;;;;5.53;72.44;100885.41;10351192;28;20048;-50
2023/01/27 17:43:52;;;;;;;2.90;2.40;;;;;;;5.49;73.02;100892.59;10351098;28;20045;-51
2023/01/27 17:49:00;;;;;;;2.97;1.80;;;;;;;5.31;74.76;100883.78;10346097;28;20499;-51
2023/01/27 17:54:15;;;;;;;2.53;2.33;;;;;;;5.27;74.80;100904.22;10350995;28;20057;-50
2023/01/27 17:59:19;;;;;;;2.45;2.25;;;;;;;5.12;75.36;100889.13;10346637;28;20063;-51
2023/01/27 18:04:22;;;;;;;2.70;2.50;;;;;;;5.24;75.68;100914.94;10343666;28;20068;-50
2023/01/27 18:09:26;;;;;;;2.60;1.90;;;;;;;5.25;75.90;100916.63;10345005;28;20053;-51
2023/01/27 18:14:32;;;;;;;3.13;1.80;;;;;;;5.06;76.16;100921.94;10343248;28;20474;-50
2023/01/27 18:19:34;;;;;;;2.22;1.85;;;;;;;4.98;77.15;100920.56;10353213;28;20049;-51
2023/01/27 18:24:37;;;;;;;2.30;2.10;;;;;;;4.94;77.40;100938.34;10342174;28;20053;-50
2023/01/27 18:29:38;;;;;;;3.88;3.03;;;;;;;5.01;76.96;100931.81;10340370;28;20129;-52
2023/01/27 18:34:49;;;;;;;3.40;3.10;;;;;;;5.53;79.63;100931.16;10346816;28;20500;-49
2023/01/27 18:39:50;;;;;;;2.50;2.30;;;;;;;5.49;75.33;100929.56;10336418;28;20053;-50
2023/01/27 18:44:52;;;;;;;3.15;2.60;;;;;;;5.25;75.42;100940.38;10341821;28;21060;-49
2023/01/27 18:50:09;;;;;;;3.03;2.45;;;;;;;5.21;75.37;100941.47;10342528;28;20550;-51
2023/01/27 18:55:18;;;;;;;2.53;2.33;;;;;;;5.17;75.43;100946.97;10343124;28;20722;-52
2023/01/27 19:00:22;;;;;;;2.67;2.47;;;;;;;5.16;75.45;100943.44;10340299;28;20940;-51
2023/01/27 19:05:33;;;;;;;2.53;2.33;;;;;;;4.90;76.12;100942.88;10338556;28;20595;-50
2023/01/27 19:10:35;;;;;;;2.45;2.25;;;;;;;4.83;76.54;100952.00;10341438;28;20163;-51
2023/01/27 19:15:40;;;;;;;2.72;2.53;;;;;;;4.84;76.09;100943.16;10341073;28;20630;-51
2023/01/27 19:20:42;;;;;;;2.92;2.63;;;;;;;4.96;75.78;100953.16;10339795;28;20058;-50
2023/01/27 19:25:48;;;;;;;2.33;2.10;;;;;;;4.95;75.21;100945.31;10338378;28;20046;-49
2023/01/27 19:30:49;;;;;;;2.63;2.42;;;;;;;4.95;75.73;100964.66;10350686;28;20072;-50
2023/01/27 19:35:59;;;;;;;2.35;2.15;;;;;;;4.78;76.24;100964.56;10355374;28;20061;-50
2023/01/27 19:41:00;;;;;;;3.25;2.80;;;;;;;4.80;76.47;100972.41;10357469;28;21704;-51
2023/01/27 19:46:12;;;;;;;3.30;2.75;;;;;;;4.76;76.32;100983.09;10358136;28;20058;-49
2023/01/27 19:51:14;;;;;;;4.13;2.60;;;;;;;4.77;76.25;100973.38;10358231;28;20056;-50
2023/01/27 19:56:19;;;;;;;3.67;3.00;;;;;;;4.71;76.25;100971.03;10355425;28;21480;-49
2023/01/27 20:01:22;;;;;;;;;;;;;;;4.64;76.80;100982.75;10360084;28;20064;-49
2023/01/27 20:06:26;;;;;;;2.97;2.50;;;;;;;4.57;77.37;100980.41;10349686;28;19921;-50
2023/01/27 20:11:31;;;;;;;3.80;2.67;;;;;;;4.55;77.10;100976.97;10359584;28;20049;-51
2023/01/27 20:16:33;;;;;;;2.90;2.70;;;;;;;4.49;77.21;100974.63;10354580;28;20056;-50
2023/01/27 20:21:35;;;;;;;3.35;2.30;;;;;;;4.53;76.87;100976.16;10359037;28;20094;-50
2023/01/27 20:26:36;;;;;;;3.13;2.60;;;;;;;4.66;76.24;100975.66;10345021;28;20664;-51
2023/01/27 20:31:38;;;;;;;3.10;2.40;;;;;;;4.70;75.95;100988.63;10348577;28;20665;-50
2023/01/27 20:36:39;;;;;;;2.30;2.10;;;;;;;4.64;75.30;100973.09;10348871;28;20053;-56
2023/01/27 20:41:41;;;;;;;2.90;1.90;;;;;;;4.39;76.52;100978.56;10350263;28;20139;-51
2023/01/27 20:46:42;;;;;;;2.53;2.33;;;;;;;4.57;75.70;100988.31;10347849;28;20496;-50
2023/01/27 20:51:44;;;;;;;2.55;2.35;;;;;;;4.67;75.15;101006.34;10351094;28;20440;-50
2023/01/27 20:56:45;;;;;;;2.65;2.20;;;;;;;4.62;75.33;100996.00;10348615;28;20053;-52
2023/01/27 21:01:47;;;;;;;2.80;1.80;;;;;;;4.51;75.39;100993.84;10349001;28;20053;-49
2023/01/27 21:06:48;;;;;;;2.58;2.28;;;;;;;4.53;75.54;101001.69;10354334;28;20048;-49
2023/01/27 21:11:50;;;;;;;2.70;2.28;;;;;;;4.52;75.09;100998.22;10351683;28;20049;-56
2023/01/27 21:16:51;;;;;;;2.97;2.22;;;;;;;4.39;75.57;101005.78;10349916;28;20501;-49
2023/01/27 21:21:55;;;;;;;2.80;2.55;;;;;;;4.38;75.39;100998.81;10343571;28;20049;-50
2023/01/27 21:26:56;;;;;;;2.40;2.10;;;;;;;4.36;75.70;101018.25;10347710;28;20052;-49
2023/01/27 21:31:58;;;;;;;3.17;2.88;;;;;;;4.39;75.53;101020.75;10351261;28;20050;-50
2023/01/27 21:36:59;;;;;;;3.05;2.78;;;;;;;4.48;75.60;101014.22;10346973;28;20736;-49
2023/01/27 21:47:03;;;;;;;3.00;2.70;;;;;;;4.42;75.39;101015.34;10346876;28;20137;-49
2023/01/27 21:52:05;;;;;;;3.20;2.88;;;;;;;4.42;75.16;101020.63;10352529;28;20111;-49
2023/01/27 21:57:07;;;;;;;3.60;2.88;;;;;;;4.34;75.85;101033.25;10348880;28;20132;-49
2023/01/27 22:02:13;;;;;;;6.53;4.97;;;;;;;4.37;75.48;101030.50;10342861;28;20112;-49
2023/01/27 22:07:16;;;;;;;3.17;2.88;;;;;;;4.20;76.00;101026.81;10345917;28;20304;-50
2023/01/27 22:12:17;;;;;;;3.03;2.72;;;;;;;4.31;76.05;101033.38;10349091;28;20088;-49
2023/01/27 22:17:19;;;;;;;2.90;2.58;;;;;;;4.41;75.54;101032.06;10345494;28;20079;-50
2023/01/27 22:22:20;;;;;;;3.30;2.50;;;;;;;4.51;74.71;101030.75;10346659;28;20730;-53
2023/01/27 22:27:22;;;;;;;3.40;2.70;;;;;;;4.37;75.23;101030.50;10349433;28;20730;-49
2023/01/27 22:32:24;;;;;;;3.63;2.85;;;;;;;4.27;75.10;101026.53;10341719;28;20622;-49
2023/01/27 22:37:26;;;;;;;2.90;2.60;;;;;;;4.10;76.42;101024.59;10345815;28;20057;-52
2023/01/27 22:42:27;;;;;;;2.70;2.50;;;;;;;4.06;76.11;101026.50;10346510;28;20115;-52
2023/01/27 22:47:29;;;;;;;3.17;2.60;;;;;;;3.87;77.04;101013.22;10352030;28;20153;-50
2023/01/27 22:52:34;;;;;;;3.05;2.75;;;;;;;3.98;76.83;101020.66;10346141;28;20049;-50
2023/01/27 22:57:35;;;;;;;2.67;2.47;;;;;;;3.96;76.84;101015.47;10344712;28;20054;-50
2023/01/27 23:02:36;;;;;;;2.60;2.38;;;;;;;4.01;76.61;101007.41;10340691;28;20419;-51
2023/01/27 23:07:38;;;;;;;2.80;2.60;;;;;;;3.95;76.68;100994.44;10347323;28;20459;-50
2023/01/27 23:12:39;;;;;;;3.63;2.63;;;;;;;3.98;76.25;101003.09;10345322;28;20558;-51
2023/01/27 23:17:41;;;;;;;2.67;2.30;;;;;;;4.02;76.32;101006.47;10345503;28;20037;-51
2023/01/27 23:22:42;;;;;;;4.10;3.10;;;;;;;3.96;76.18;101014.63;10347874;28;20760;-51
2023/01/27 23:27:43;;;;;;;2.90;2.70;;;;;;;4.05;75.57;101016.88;10343929;28;20053;-52
2023/01/27 23:32:45;;;;;;;2.63;2.38;;;;;;;4.02;75.52;101014.38;10342774;28;20054;-56
2023/01/27 23:37:46;;;;;;;2.63;2.40;;;;;;;3.77;75.76;100993.44;10345538;28;20054;-49
2023/01/27 23:42:48;;;;;;;3.28;2.40;;;;;;;3.72;76.53;101004.16;10350177;28;20069;-50
2023/01/27 23:47:49;;;;;;;3.58;2.60;;;;;;;3.77;75.94;101014.50;10345649;28;20072;-49
2023/01/27 23:52:51;;;;;;;3.55;2.10;;;;;;;3.75;75.70;101008.44;10347395;28;20057;-50
2023/01/27 23:57:52;;;;;;;2.33;2.13;;;;;;;3.69;75.81;101002.50;10344042;28;20427;-49
